sensor_id;sensor_type;location;lat;lon;timestamp;temperature;humidity
62154;DHT22;48140;45.486;9.226;2023-02-01T00:02:19;7.10;91.60
62154;DHT22;48140;45.486;9.226;2023-02-01T00:04:44;7.00;91.60
62154;DHT22;48140;45.486;9.226;2023-02-01T00:07:10;7.60;91.70
62154;DHT22;48140;45.486;9.226;2023-02-01T00:09:36;7.00;91.60
62154;DHT22;48140;45.486;9.226;2023-02-01T00:12:01;7.10;91.60
62154;DHT22;48140;45.486;9.226;2023-02-01T00:14:28;7.00;91.70
62154;DHT22;48140;45.486;9.226;2023-02-01T00:16:54;7.00;91.60
62154;DHT22;48140;45.486;9.226;2023-02-01T00:19:19;7.00;91.80
62154;DHT22;48140;45.486;9.226;2023-02-01T00:21:46;6.90;91.70
62154;DHT22;48140;45.486;9.226;2023-02-01T00:24:12;7.00;91.70
62154;DHT22;48140;45.486;9.226;2023-02-01T00:26:41;6.80;91.70
62154;DHT22;48140;45.486;9.226;2023-02-01T00:29:12;6.90;91.90
62154;DHT22;48140;45.486;9.226;2023-02-01T00:31:38;6.80;92.00
62154;DHT22;48140;45.486;9.226;2023-02-01T00:34:04;6.80;92.00
62154;DHT22;48140;45.486;9.226;2023-02-01T00:36:30;6.80;91.90
62154;DHT22;48140;45.486;9.226;2023-02-01T00:38:56;6.80;91.80
62154;DHT22;48140;45.486;9.226;2023-02-01T00:41:22;7.10;91.60
62154;DHT22;48140;45.486;9.226;2023-02-01T00:43:49;6.70;91.40
62154;DHT22;48140;45.486;9.226;2023-02-01T00:46:18;6.70;91.50
62154;DHT22;48140;45.486;9.226;2023-02-01T00:48:44;6.70;91.40
62154;DHT22;48140;45.486;9.226;2023-02-01T00:51:23;6.70;91.20
62154;DHT22;48140;45.486;9.226;2023-02-01T00:53:49;6.60;91.10
62154;DHT22;48140;45.486;9.226;2023-02-01T00:56:16;6.60;91.00
62154;DHT22;48140;45.486;9.226;2023-02-01T00:58:41;6.60;90.80
62154;DHT22;48140;45.486;9.226;2023-02-01T01:03:36;6.60;90.50
62154;DHT22;48140;45.486;9.226;2023-02-01T01:06:05;6.60;90.30
62154;DHT22;48140;45.486;9.226;2023-02-01T01:08:32;6.50;90.00
62154;DHT22;48140;45.486;9.226;2023-02-01T01:10:58;6.50;89.90
62154;DHT22;48140;45.486;9.226;2023-02-01T01:13:28;6.50;89.70
62154;DHT22;48140;45.486;9.226;2023-02-01T01:15:54;6.60;89.60
62154;DHT22;48140;45.486;9.226;2023-02-01T01:18:19;6.50;88.70
62154;DHT22;48140;45.486;9.226;2023-02-01T01:20:45;6.50;88.00
62154;DHT22;48140;45.486;9.226;2023-02-01T01:23:12;6.60;87.70
62154;DHT22;48140;45.486;9.226;2023-02-01T01:25:39;6.60;86.90
62154;DHT22;48140;45.486;9.226;2023-02-01T01:28:06;6.50;87.10
62154;DHT22;48140;45.486;9.226;2023-02-01T01:30:34;6.50;86.90
62154;DHT22;48140;45.486;9.226;2023-02-01T01:33:00;6.60;86.20
62154;DHT22;48140;45.486;9.226;2023-02-01T01:35:26;6.60;85.80
62154;DHT22;48140;45.486;9.226;2023-02-01T01:37:51;6.50;85.20
62154;DHT22;48140;45.486;9.226;2023-02-01T01:40:17;6.70;84.70
62154;DHT22;48140;45.486;9.226;2023-02-01T01:42:43;6.60;84.00
62154;DHT22;48140;45.486;9.226;2023-02-01T01:45:25;6.60;83.50
62154;DHT22;48140;45.486;9.226;2023-02-01T01:47:57;6.60;83.00
62154;DHT22;48140;45.486;9.226;2023-02-01T01:50:27;6.60;82.00
62154;DHT22;48140;45.486;9.226;2023-02-01T01:52:57;6.60;81.50
62154;DHT22;48140;45.486;9.226;2023-02-01T01:55:25;6.60;81.20
62154;DHT22;48140;45.486;9.226;2023-02-01T01:57:57;6.50;81.20
62154;DHT22;48140;45.486;9.226;2023-02-01T02:00:25;6.40;81.40
62154;DHT22;48140;45.486;9.226;2023-02-01T02:02:56;6.30;81.50
62154;DHT22;48140;45.486;9.226;2023-02-01T02:05:23;6.40;81.00
62154;DHT22;48140;45.486;9.226;2023-02-01T02:07:50;6.40;80.10
62154;DHT22;48140;45.486;9.226;2023-02-01T02:10:17;6.40;79.90
62154;DHT22;48140;45.486;9.226;2023-02-01T02:12:45;6.40;80.10
62154;DHT22;48140;45.486;9.226;2023-02-01T02:15:14;6.40;80.00
62154;DHT22;48140;45.486;9.226;2023-02-01T02:18:08;6.50;79.90
62154;DHT22;48140;45.486;9.226;2023-02-01T02:20:52;6.50;80.00
62154;DHT22;48140;45.486;9.226;2023-02-01T02:23:47;6.60;79.20
62154;DHT22;48140;45.486;9.226;2023-02-01T02:26:53;6.50;78.30
62154;DHT22;48140;45.486;9.226;2023-02-01T02:29:50;6.50;78.80
62154;DHT22;48140;45.486;9.226;2023-02-01T02:32:52;6.40;78.90
62154;DHT22;48140;45.486;9.226;2023-02-01T02:35:30;6.40;78.50
62154;DHT22;48140;45.486;9.226;2023-02-01T02:44:36;6.40;75.90
62154;DHT22;48140;45.486;9.226;2023-02-01T02:47:35;6.40;75.50
62154;DHT22;48140;45.486;9.226;2023-02-01T02:53:19;6.30;75.50
62154;DHT22;48140;45.486;9.226;2023-02-01T02:56:06;6.30;75.50
62154;DHT22;48140;45.486;9.226;2023-02-01T02:58:51;6.20;75.70
62154;DHT22;48140;45.486;9.226;2023-02-01T03:01:37;6.10;75.90
62154;DHT22;48140;45.486;9.226;2023-02-01T03:04:25;6.10;75.90
62154;DHT22;48140;45.486;9.226;2023-02-01T03:06:52;6.00;75.00
62154;DHT22;48140;45.486;9.226;2023-02-01T03:09:23;6.00;75.30
62154;DHT22;48140;45.486;9.226;2023-02-01T03:11:54;6.00;76.00
62154;DHT22;48140;45.486;9.226;2023-02-01T03:14:44;6.00;75.70
62154;DHT22;48140;45.486;9.226;2023-02-01T03:17:18;5.90;75.50
62154;DHT22;48140;45.486;9.226;2023-02-01T03:19:47;5.90;73.80
62154;DHT22;48140;45.486;9.226;2023-02-01T03:22:22;5.80;74.10
62154;DHT22;48140;45.486;9.226;2023-02-01T03:25:04;5.80;73.70
62154;DHT22;48140;45.486;9.226;2023-02-01T03:28:10;5.80;73.80
62154;DHT22;48140;45.486;9.226;2023-02-01T03:30:34;5.80;73.80
62154;DHT22;48140;45.486;9.226;2023-02-01T03:33:04;5.90;73.40
62154;DHT22;48140;45.486;9.226;2023-02-01T03:38:33;5.90;73.30
62154;DHT22;48140;45.486;9.226;2023-02-01T03:41:13;5.90;72.50
62154;DHT22;48140;45.486;9.226;2023-02-01T03:46:59;6.00;71.40
62154;DHT22;48140;45.486;9.226;2023-02-01T03:49:31;6.00;70.70
62154;DHT22;48140;45.486;9.226;2023-02-01T03:51:59;6.00;70.90
62154;DHT22;48140;45.486;9.226;2023-02-01T03:54:27;6.00;70.80
62154;DHT22;48140;45.486;9.226;2023-02-01T03:56:56;6.00;71.10
62154;DHT22;48140;45.486;9.226;2023-02-01T03:59:23;6.00;71.50
62154;DHT22;48140;45.486;9.226;2023-02-01T04:01:49;5.90;71.20
62154;DHT22;48140;45.486;9.226;2023-02-01T04:04:15;5.90;71.90
62154;DHT22;48140;45.486;9.226;2023-02-01T04:06:48;5.80;73.00
62154;DHT22;48140;45.486;9.226;2023-02-01T04:09:14;5.80;74.20
62154;DHT22;48140;45.486;9.226;2023-02-01T04:11:40;5.70;74.50
62154;DHT22;48140;45.486;9.226;2023-02-01T04:14:06;5.70;74.90
62154;DHT22;48140;45.486;9.226;2023-02-01T04:16:32;5.60;75.30
62154;DHT22;48140;45.486;9.226;2023-02-01T04:18:58;5.60;75.50
62154;DHT22;48140;45.486;9.226;2023-02-01T04:21:25;5.50;76.00
62154;DHT22;48140;45.486;9.226;2023-02-01T04:23:51;5.50;76.50
62154;DHT22;48140;45.486;9.226;2023-02-01T04:26:17;5.50;77.40
62154;DHT22;48140;45.486;9.226;2023-02-01T04:28:42;5.50;78.00
62154;DHT22;48140;45.486;9.226;2023-02-01T04:31:08;5.50;78.30
62154;DHT22;48140;45.486;9.226;2023-02-01T04:33:33;5.50;79.00
62154;DHT22;48140;45.486;9.226;2023-02-01T04:35:59;5.50;79.40
62154;DHT22;48140;45.486;9.226;2023-02-01T04:38:25;5.50;79.60
62154;DHT22;48140;45.486;9.226;2023-02-01T04:40:52;5.50;80.00
62154;DHT22;48140;45.486;9.226;2023-02-01T04:43:18;5.50;80.40
62154;DHT22;48140;45.486;9.226;2023-02-01T04:45:48;5.50;80.90
62154;DHT22;48140;45.486;9.226;2023-02-01T04:48:14;5.50;81.10
62154;DHT22;48140;45.486;9.226;2023-02-01T04:50:40;5.50;81.40
62154;DHT22;48140;45.486;9.226;2023-02-01T04:53:06;5.50;82.10
62154;DHT22;48140;45.486;9.226;2023-02-01T04:55:31;5.60;82.30
62154;DHT22;48140;45.486;9.226;2023-02-01T04:57:57;5.60;82.10
62154;DHT22;48140;45.486;9.226;2023-02-01T05:00:23;5.60;82.90
62154;DHT22;48140;45.486;9.226;2023-02-01T05:02:48;5.60;83.60
62154;DHT22;48140;45.486;9.226;2023-02-01T05:05:14;5.60;85.00
62154;DHT22;48140;45.486;9.226;2023-02-01T05:07:40;5.60;85.80
62154;DHT22;48140;45.486;9.226;2023-02-01T05:10:06;5.60;86.40
62154;DHT22;48140;45.486;9.226;2023-02-01T05:12:31;5.60;86.90
62154;DHT22;48140;45.486;9.226;2023-02-01T05:15:16;5.70;87.10
62154;DHT22;48140;45.486;9.226;2023-02-01T05:17:43;5.70;88.10
62154;DHT22;48140;45.486;9.226;2023-02-01T05:20:10;5.80;87.90
62154;DHT22;48140;45.486;9.226;2023-02-01T05:22:36;5.70;87.50
62154;DHT22;48140;45.486;9.226;2023-02-01T05:25:01;5.70;87.40
62154;DHT22;48140;45.486;9.226;2023-02-01T05:27:29;5.70;87.80
62154;DHT22;48140;45.486;9.226;2023-02-01T05:29:55;5.60;87.50
62154;DHT22;48140;45.486;9.226;2023-02-01T05:32:21;5.60;88.00
62154;DHT22;48140;45.486;9.226;2023-02-01T05:34:47;6.30;89.20
62154;DHT22;48140;45.486;9.226;2023-02-01T05:37:12;5.60;89.30
62154;DHT22;48140;45.486;9.226;2023-02-01T05:39:38;5.60;89.80
62154;DHT22;48140;45.486;9.226;2023-02-01T05:42:03;5.60;90.50
62154;DHT22;48140;45.486;9.226;2023-02-01T05:44:29;5.60;90.40
62154;DHT22;48140;45.486;9.226;2023-02-01T05:46:55;5.60;90.70
62154;DHT22;48140;45.486;9.226;2023-02-01T05:49:20;5.60;90.90
62154;DHT22;48140;45.486;9.226;2023-02-01T05:51:46;5.60;91.10
62154;DHT22;48140;45.486;9.226;2023-02-01T05:54:12;5.60;92.80
62154;DHT22;48140;45.486;9.226;2023-02-01T05:56:37;5.70;92.30
62154;DHT22;48140;45.486;9.226;2023-02-01T05:59:03;5.70;92.40
62154;DHT22;48140;45.486;9.226;2023-02-01T06:01:28;5.70;92.10
62154;DHT22;48140;45.486;9.226;2023-02-01T06:03:54;5.70;92.70
62154;DHT22;48140;45.486;9.226;2023-02-01T06:06:20;5.80;92.60
62154;DHT22;48140;45.486;9.226;2023-02-01T06:08:45;5.80;92.40
62154;DHT22;48140;45.486;9.226;2023-02-01T06:11:11;5.80;92.10
62154;DHT22;48140;45.486;9.226;2023-02-01T06:13:38;5.90;91.90
62154;DHT22;48140;45.486;9.226;2023-02-01T06:16:05;5.90;91.70
62154;DHT22;48140;45.486;9.226;2023-02-01T06:18:33;5.80;91.60
62154;DHT22;48140;45.486;9.226;2023-02-01T06:20:59;5.80;91.60
62154;DHT22;48140;45.486;9.226;2023-02-01T06:23:29;5.80;91.70
62154;DHT22;48140;45.486;9.226;2023-02-01T06:26:03;5.70;91.60
62154;DHT22;48140;45.486;9.226;2023-02-01T06:28:30;5.80;92.70
62154;DHT22;48140;45.486;9.226;2023-02-01T06:30:56;5.80;91.80
62154;DHT22;48140;45.486;9.226;2023-02-01T06:33:24;5.70;91.70
62154;DHT22;48140;45.486;9.226;2023-02-01T06:35:59;5.70;91.90
62154;DHT22;48140;45.486;9.226;2023-02-01T06:38:25;5.70;92.00
62154;DHT22;48140;45.486;9.226;2023-02-01T06:40:55;5.60;92.20
62154;DHT22;48140;45.486;9.226;2023-02-01T06:43:22;5.70;92.30
62154;DHT22;48140;45.486;9.226;2023-02-01T06:45:47;5.60;92.10
62154;DHT22;48140;45.486;9.226;2023-02-01T06:48:13;5.60;91.80
62154;DHT22;48140;45.486;9.226;2023-02-01T06:50:39;5.70;91.20
62154;DHT22;48140;45.486;9.226;2023-02-01T06:53:04;5.60;91.30
62154;DHT22;48140;45.486;9.226;2023-02-01T06:55:30;5.60;90.90
62154;DHT22;48140;45.486;9.226;2023-02-01T06:57:56;5.60;90.00
62154;DHT22;48140;45.486;9.226;2023-02-01T07:00:25;5.60;89.10
62154;DHT22;48140;45.486;9.226;2023-02-01T07:02:50;5.60;88.20
62154;DHT22;48140;45.486;9.226;2023-02-01T07:05:16;5.60;87.80
62154;DHT22;48140;45.486;9.226;2023-02-01T07:07:42;5.60;87.40
62154;DHT22;48140;45.486;9.226;2023-02-01T07:10:08;5.60;86.80
62154;DHT22;48140;45.486;9.226;2023-02-01T07:12:34;5.70;90.20
62154;DHT22;48140;45.486;9.226;2023-02-01T07:15:01;5.70;86.70
62154;DHT22;48140;45.486;9.226;2023-02-01T07:17:27;5.70;87.00
62154;DHT22;48140;45.486;9.226;2023-02-01T07:19:55;5.70;84.10
62154;DHT22;48140;45.486;9.226;2023-02-01T07:22:20;5.70;82.80
62154;DHT22;48140;45.486;9.226;2023-02-01T07:24:46;5.60;82.10
62154;DHT22;48140;45.486;9.226;2023-02-01T07:27:12;5.70;82.20
62154;DHT22;48140;45.486;9.226;2023-02-01T07:29:38;5.60;81.00
62154;DHT22;48140;45.486;9.226;2023-02-01T07:32:03;5.70;81.10
62154;DHT22;48140;45.486;9.226;2023-02-01T07:34:29;5.70;81.40
62154;DHT22;48140;45.486;9.226;2023-02-01T07:36:56;5.70;80.90
62154;DHT22;48140;45.486;9.226;2023-02-01T07:39:22;5.80;80.50
62154;DHT22;48140;45.486;9.226;2023-02-01T07:41:48;5.90;80.20
62154;DHT22;48140;45.486;9.226;2023-02-01T07:44:13;5.90;79.60
62154;DHT22;48140;45.486;9.226;2023-02-01T07:46:39;5.90;79.90
62154;DHT22;48140;45.486;9.226;2023-02-01T07:49:08;6.00;80.10
62154;DHT22;48140;45.486;9.226;2023-02-01T07:51:34;6.10;80.60
62154;DHT22;48140;45.486;9.226;2023-02-01T07:53:59;6.10;80.30
62154;DHT22;48140;45.486;9.226;2023-02-01T07:56:26;6.20;80.70
62154;DHT22;48140;45.486;9.226;2023-02-01T07:58:53;6.20;80.50
62154;DHT22;48140;45.486;9.226;2023-02-01T08:01:26;6.40;79.90
62154;DHT22;48140;45.486;9.226;2023-02-01T08:03:57;6.50;79.10
62154;DHT22;48140;45.486;9.226;2023-02-01T08:06:24;6.50;78.50
62154;DHT22;48140;45.486;9.226;2023-02-01T08:08:51;6.60;77.40
62154;DHT22;48140;45.486;9.226;2023-02-01T08:11:18;6.70;78.50
62154;DHT22;48140;45.486;9.226;2023-02-01T08:13:44;6.80;77.40
62154;DHT22;48140;45.486;9.226;2023-02-01T08:16:12;6.90;76.80
62154;DHT22;48140;45.486;9.226;2023-02-01T08:18:39;6.90;77.20
62154;DHT22;48140;45.486;9.226;2023-02-01T08:21:07;7.00;76.60
62154;DHT22;48140;45.486;9.226;2023-02-01T08:23:34;7.10;75.20
62154;DHT22;48140;45.486;9.226;2023-02-01T08:26:12;7.10;72.60
62154;DHT22;48140;45.486;9.226;2023-02-01T08:28:39;7.20;69.90
62154;DHT22;48140;45.486;9.226;2023-02-01T08:31:07;7.30;68.20
62154;DHT22;48140;45.486;9.226;2023-02-01T08:33:33;7.40;70.30
62154;DHT22;48140;45.486;9.226;2023-02-01T08:36:03;7.90;69.90
62154;DHT22;48140;45.486;9.226;2023-02-01T08:38:29;7.50;68.00
62154;DHT22;48140;45.486;9.226;2023-02-01T08:40:55;7.70;66.60
62154;DHT22;48140;45.486;9.226;2023-02-01T08:43:21;7.70;65.70
62154;DHT22;48140;45.486;9.226;2023-02-01T08:45:46;7.80;64.70
62154;DHT22;48140;45.486;9.226;2023-02-01T08:48:12;7.90;64.80
62154;DHT22;48140;45.486;9.226;2023-02-01T08:50:38;8.00;63.50
62154;DHT22;48140;45.486;9.226;2023-02-01T08:53:03;8.10;62.80
62154;DHT22;48140;45.486;9.226;2023-02-01T08:55:29;8.20;63.10
62154;DHT22;48140;45.486;9.226;2023-02-01T08:57:56;8.20;62.50
62154;DHT22;48140;45.486;9.226;2023-02-01T09:00:22;8.30;62.00
62154;DHT22;48140;45.486;9.226;2023-02-01T09:02:47;8.40;61.70
62154;DHT22;48140;45.486;9.226;2023-02-01T09:05:13;8.60;58.20
62154;DHT22;48140;45.486;9.226;2023-02-01T09:07:42;8.80;58.60
62154;DHT22;48140;45.486;9.226;2023-02-01T09:10:08;9.10;53.20
62154;DHT22;48140;45.486;9.226;2023-02-01T09:12:35;9.50;52.80
62154;DHT22;48140;45.486;9.226;2023-02-01T09:15:01;10.00;49.60
62154;DHT22;48140;45.486;9.226;2023-02-01T09:17:28;10.70;48.30
62154;DHT22;48140;45.486;9.226;2023-02-01T09:19:53;11.30;45.90
62154;DHT22;48140;45.486;9.226;2023-02-01T09:22:19;11.90;44.10
62154;DHT22;48140;45.486;9.226;2023-02-01T09:24:45;12.50;41.90
62154;DHT22;48140;45.486;9.226;2023-02-01T09:27:11;12.90;40.40
62154;DHT22;48140;45.486;9.226;2023-02-01T09:29:37;13.30;39.10
62154;DHT22;48140;45.486;9.226;2023-02-01T09:32:02;13.60;37.90
62154;DHT22;48140;45.486;9.226;2023-02-01T09:34:28;13.70;37.50
62154;DHT22;48140;45.486;9.226;2023-02-01T09:36:55;14.10;36.40
62154;DHT22;48140;45.486;9.226;2023-02-01T09:39:20;14.50;35.40
62154;DHT22;48140;45.486;9.226;2023-02-01T09:41:57;14.80;34.70
62154;DHT22;48140;45.486;9.226;2023-02-01T09:46:58;15.00;34.90
62154;DHT22;48140;45.486;9.226;2023-02-01T09:49:39;15.10;34.60
62154;DHT22;48140;45.486;9.226;2023-02-01T09:52:10;15.70;34.60
62154;DHT22;48140;45.486;9.226;2023-02-01T09:55:00;15.90;33.70
62154;DHT22;48140;45.486;9.226;2023-02-01T10:00:11;16.10;34.30
62154;DHT22;48140;45.486;9.226;2023-02-01T10:02:42;16.00;34.00
62154;DHT22;48140;45.486;9.226;2023-02-01T10:05:16;16.40;33.70
62154;DHT22;48140;45.486;9.226;2023-02-01T10:08:03;16.70;33.80
62154;DHT22;48140;45.486;9.226;2023-02-01T10:15:57;17.70;33.20
62154;DHT22;48140;45.486;9.226;2023-02-01T10:21:02;17.60;34.00
62154;DHT22;48140;45.486;9.226;2023-02-01T10:23:57;17.90;33.60
62154;DHT22;48140;45.486;9.226;2023-02-01T10:26:36;17.70;35.20
62154;DHT22;48140;45.486;9.226;2023-02-01T10:29:04;18.10;34.00
62154;DHT22;48140;45.486;9.226;2023-02-01T10:31:37;18.20;34.40
62154;DHT22;48140;45.486;9.226;2023-02-01T10:34:22;17.90;35.60
62154;DHT22;48140;45.486;9.226;2023-02-01T10:37:00;17.80;36.20
62154;DHT22;48140;45.486;9.226;2023-02-01T10:39:26;17.80;36.90
62154;DHT22;48140;45.486;9.226;2023-02-01T10:41:54;17.90;36.70
62154;DHT22;48140;45.486;9.226;2023-02-01T10:44:26;18.30;36.60
62154;DHT22;48140;45.486;9.226;2023-02-01T10:46:52;18.40;37.20
62154;DHT22;48140;45.486;9.226;2023-02-01T10:49:37;18.50;36.70
62154;DHT22;48140;45.486;9.226;2023-02-01T10:54:41;18.40;37.70
62154;DHT22;48140;45.486;9.226;2023-02-01T10:57:26;18.00;39.00
62154;DHT22;48140;45.486;9.226;2023-02-01T10:59:55;18.20;38.80
62154;DHT22;48140;45.486;9.226;2023-02-01T11:02:33;18.40;38.50
62154;DHT22;48140;45.486;9.226;2023-02-01T11:05:05;18.80;37.70
62154;DHT22;48140;45.486;9.226;2023-02-01T11:07:33;19.20;37.00
62154;DHT22;48140;45.486;9.226;2023-02-01T11:10:00;19.10;37.70
62154;DHT22;48140;45.486;9.226;2023-02-01T11:12:30;19.40;37.10
62154;DHT22;48140;45.486;9.226;2023-02-01T11:15:11;19.80;36.40
62154;DHT22;48140;45.486;9.226;2023-02-01T11:17:43;19.40;37.90
62154;DHT22;48140;45.486;9.226;2023-02-01T11:20:23;19.40;38.10
62154;DHT22;48140;45.486;9.226;2023-02-01T11:22:55;19.90;37.40
62154;DHT22;48140;45.486;9.226;2023-02-01T11:25:23;20.10;37.20
62154;DHT22;48140;45.486;9.226;2023-02-01T11:27:50;19.90;38.00
62154;DHT22;48140;45.486;9.226;2023-02-01T11:30:31;19.70;38.00
62154;DHT22;48140;45.486;9.226;2023-02-01T11:32:59;19.90;38.30
62154;DHT22;48140;45.486;9.226;2023-02-01T11:35:28;19.40;38.70
62154;DHT22;48140;45.486;9.226;2023-02-01T11:37:57;18.60;40.90
62154;DHT22;48140;45.486;9.226;2023-02-01T11:40:35;18.50;42.40
62154;DHT22;48140;45.486;9.226;2023-02-01T11:43:08;18.00;44.00
62154;DHT22;48140;45.486;9.226;2023-02-01T11:45:37;18.30;42.60
62154;DHT22;48140;45.486;9.226;2023-02-01T11:48:09;18.70;42.40
62154;DHT22;48140;45.486;9.226;2023-02-01T11:50:46;18.30;43.20
62154;DHT22;48140;45.486;9.226;2023-02-01T11:56:36;18.50;43.20
62154;DHT22;48140;45.486;9.226;2023-02-01T12:04:56;18.90;42.40
62154;DHT22;48140;45.486;9.226;2023-02-01T12:13:42;19.00;41.50
62154;DHT22;48140;45.486;9.226;2023-02-01T12:18:47;20.30;39.40
62154;DHT22;48140;45.486;9.226;2023-02-01T12:24:53;19.10;41.70
62154;DHT22;48140;45.486;9.226;2023-02-01T12:27:36;19.00;42.70
62154;DHT22;48140;45.486;9.226;2023-02-01T12:33:09;18.60;42.90
62154;DHT22;48140;45.486;9.226;2023-02-01T12:49:29;19.40;39.10
62154;DHT22;48140;45.486;9.226;2023-02-01T12:52:05;18.70;41.50
62154;DHT22;48140;45.486;9.226;2023-02-01T12:57:37;18.70;42.10
62154;DHT22;48140;45.486;9.226;2023-02-01T13:00:35;19.60;41.30
62154;DHT22;48140;45.486;9.226;2023-02-01T13:03:29;20.70;38.00
62154;DHT22;48140;45.486;9.226;2023-02-01T13:06:16;20.70;37.60
62154;DHT22;48140;45.486;9.226;2023-02-01T13:11:40;21.40;34.00
62154;DHT22;48140;45.486;9.226;2023-02-01T13:17:00;21.10;36.10
62154;DHT22;48140;45.486;9.226;2023-02-01T13:19:56;21.10;35.60
62154;DHT22;48140;45.486;9.226;2023-02-01T13:22:27;21.70;34.70
62154;DHT22;48140;45.486;9.226;2023-02-01T13:25:00;21.50;35.20
62154;DHT22;48140;45.486;9.226;2023-02-01T13:27:28;21.90;35.00
62154;DHT22;48140;45.486;9.226;2023-02-01T13:30:06;22.50;33.20
62154;DHT22;48140;45.486;9.226;2023-02-01T13:32:47;21.60;34.10
62154;DHT22;48140;45.486;9.226;2023-02-01T13:35:24;21.70;34.20
62154;DHT22;48140;45.486;9.226;2023-02-01T13:41:20;22.40;33.40
62154;DHT22;48140;45.486;9.226;2023-02-01T13:43:28;23.00;32.60
62154;DHT22;48140;45.486;9.226;2023-02-01T13:45:57;23.90;30.90
62154;DHT22;48140;45.486;9.226;2023-02-01T13:48:45;24.10;30.60
62154;DHT22;48140;45.486;9.226;2023-02-01T13:51:13;24.30;30.10
62154;DHT22;48140;45.486;9.226;2023-02-01T13:53:45;24.10;30.60
62154;DHT22;48140;45.486;9.226;2023-02-01T13:56:19;24.70;29.80
62154;DHT22;48140;45.486;9.226;2023-02-01T13:58:47;23.50;31.30
62154;DHT22;48140;45.486;9.226;2023-02-01T14:06:40;22.00;34.40
62154;DHT22;48140;45.486;9.226;2023-02-01T14:09:12;23.20;32.20
62154;DHT22;48140;45.486;9.226;2023-02-01T14:19:32;23.10;31.90
62154;DHT22;48140;45.486;9.226;2023-02-01T14:22:00;23.10;31.40
62154;DHT22;48140;45.486;9.226;2023-02-01T14:26:55;21.20;35.10
62154;DHT22;48140;45.486;9.226;2023-02-01T14:30:11;21.10;37.20
62154;DHT22;48140;45.486;9.226;2023-02-01T14:32:18;21.00;36.20
62154;DHT22;48140;45.486;9.226;2023-02-01T14:42:21;22.40;33.30
62154;DHT22;48140;45.486;9.226;2023-02-01T14:44:53;22.50;33.30
62154;DHT22;48140;45.486;9.226;2023-02-01T14:52:20;22.30;34.10
62154;DHT22;48140;45.486;9.226;2023-02-01T14:54:52;22.20;33.60
62154;DHT22;48140;45.486;9.226;2023-02-01T14:57:21;21.70;34.80
62154;DHT22;48140;45.486;9.226;2023-02-01T14:59:53;22.00;34.50
62154;DHT22;48140;45.486;9.226;2023-02-01T15:02:26;21.90;34.60
62154;DHT22;48140;45.486;9.226;2023-02-01T15:04:57;22.30;34.10
62154;DHT22;48140;45.486;9.226;2023-02-01T15:07:25;22.40;33.80
62154;DHT22;48140;45.486;9.226;2023-02-01T15:09:53;22.30;34.10
62154;DHT22;48140;45.486;9.226;2023-02-01T15:12:27;22.30;34.30
62154;DHT22;48140;45.486;9.226;2023-02-01T15:17:38;21.60;35.20
62154;DHT22;48140;45.486;9.226;2023-02-01T15:20:16;21.20;36.30
62154;DHT22;48140;45.486;9.226;2023-02-01T15:22:55;21.10;37.20
62154;DHT22;48140;45.486;9.226;2023-02-01T15:25:25;21.30;36.80
62154;DHT22;48140;45.486;9.226;2023-02-01T15:27:51;20.20;38.90
62154;DHT22;48140;45.486;9.226;2023-02-01T15:30:26;20.40;38.90
62154;DHT22;48140;45.486;9.226;2023-02-01T15:35:49;19.90;40.40
62154;DHT22;48140;45.486;9.226;2023-02-01T15:43:18;19.80;41.30
62154;DHT22;48140;45.486;9.226;2023-02-01T15:45:44;20.00;40.60
62154;DHT22;48140;45.486;9.226;2023-02-01T15:48:20;19.70;41.50
62154;DHT22;48140;45.486;9.226;2023-02-01T15:50:47;19.40;42.60
62154;DHT22;48140;45.486;9.226;2023-02-01T15:53:20;18.70;44.80
62154;DHT22;48140;45.486;9.226;2023-02-01T15:55:52;18.50;46.60
62154;DHT22;48140;45.486;9.226;2023-02-01T15:58:20;18.10;49.30
62154;DHT22;48140;45.486;9.226;2023-02-01T16:00:54;18.10;48.80
62154;DHT22;48140;45.486;9.226;2023-02-01T16:03:33;18.00;49.60
62154;DHT22;48140;45.486;9.226;2023-02-01T16:06:02;18.10;49.20
62154;DHT22;48140;45.486;9.226;2023-02-01T16:08:30;18.00;49.90
62154;DHT22;48140;45.486;9.226;2023-02-01T16:13:48;17.00;54.90
62154;DHT22;48140;45.486;9.226;2023-02-01T16:16:14;16.60;58.30
62154;DHT22;48140;45.486;9.226;2023-02-01T16:18:42;16.10;60.40
62154;DHT22;48140;45.486;9.226;2023-02-01T16:21:09;15.80;63.70
62154;DHT22;48140;45.486;9.226;2023-02-01T16:23:35;15.50;65.80
62154;DHT22;48140;45.486;9.226;2023-02-01T16:26:01;15.20;67.80
62154;DHT22;48140;45.486;9.226;2023-02-01T16:28:27;14.80;69.60
62154;DHT22;48140;45.486;9.226;2023-02-01T16:30:52;14.60;71.30
62154;DHT22;48140;45.486;9.226;2023-02-01T16:33:19;14.40;72.50
62154;DHT22;48140;45.486;9.226;2023-02-01T16:35:48;14.30;73.30
62154;DHT22;48140;45.486;9.226;2023-02-01T16:38:17;14.10;74.50
62154;DHT22;48140;45.486;9.226;2023-02-01T16:40:45;14.00;75.10
62154;DHT22;48140;45.486;9.226;2023-02-01T16:43:14;13.90;75.60
62154;DHT22;48140;45.486;9.226;2023-02-01T16:45:41;13.80;75.70
62154;DHT22;48140;45.486;9.226;2023-02-01T16:48:24;13.70;76.80
62154;DHT22;48140;45.486;9.226;2023-02-01T16:50:54;13.60;77.10
62154;DHT22;48140;45.486;9.226;2023-02-01T16:53:21;13.40;77.60
62154;DHT22;48140;45.486;9.226;2023-02-01T16:55:47;13.40;78.20
62154;DHT22;48140;45.486;9.226;2023-02-01T16:58:15;13.30;78.50
62154;DHT22;48140;45.486;9.226;2023-02-01T17:00:41;13.20;78.80
62154;DHT22;48140;45.486;9.226;2023-02-01T17:03:07;13.10;78.90
62154;DHT22;48140;45.486;9.226;2023-02-01T17:05:33;13.10;79.20
62154;DHT22;48140;45.486;9.226;2023-02-01T17:08:03;13.00;79.10
62154;DHT22;48140;45.486;9.226;2023-02-01T17:10:30;12.90;79.40
62154;DHT22;48140;45.486;9.226;2023-02-01T17:12:56;12.90;79.50
62154;DHT22;48140;45.486;9.226;2023-02-01T17:15:24;12.80;80.20
62154;DHT22;48140;45.486;9.226;2023-02-01T17:17:51;12.70;80.40
62154;DHT22;48140;45.486;9.226;2023-02-01T17:20:21;12.70;81.00
62154;DHT22;48140;45.486;9.226;2023-02-01T17:22:48;12.70;80.70
62154;DHT22;48140;45.486;9.226;2023-02-01T17:25:17;12.70;80.20
62154;DHT22;48140;45.486;9.226;2023-02-01T17:27:43;12.60;80.10
62154;DHT22;48140;45.486;9.226;2023-02-01T17:30:11;12.60;80.60
62154;DHT22;48140;45.486;9.226;2023-02-01T17:32:36;12.60;80.90
62154;DHT22;48140;45.486;9.226;2023-02-01T17:35:05;12.50;81.10
62154;DHT22;48140;45.486;9.226;2023-02-01T17:37:33;12.40;81.10
62154;DHT22;48140;45.486;9.226;2023-02-01T17:40:00;12.40;81.40
62154;DHT22;48140;45.486;9.226;2023-02-01T17:42:28;12.30;81.40
62154;DHT22;48140;45.486;9.226;2023-02-01T17:44:59;12.30;81.80
62154;DHT22;48140;45.486;9.226;2023-02-01T17:47:25;12.20;82.30
62154;DHT22;48140;45.486;9.226;2023-02-01T17:49:50;12.30;82.60
62154;DHT22;48140;45.486;9.226;2023-02-01T17:52:22;12.20;82.20
62154;DHT22;48140;45.486;9.226;2023-02-01T17:54:48;12.10;82.30
62154;DHT22;48140;45.486;9.226;2023-02-01T17:57:15;12.10;82.20
62154;DHT22;48140;45.486;9.226;2023-02-01T17:59:43;12.10;81.80
62154;DHT22;48140;45.486;9.226;2023-02-01T18:02:35;12.10;81.50
62154;DHT22;48140;45.486;9.226;2023-02-01T18:05:00;12.10;79.60